Gulf Bridge — A8JM5 — position and weather

sailwx.info

Track history (hours):
 
Tides and Currents Weather Stations Pressure Air Temp Water Temp Dewpoint Dewpoint Depression Visibility Wind Speed Wind Dir Waves Ship Positions

Gulf Bridge

Last reported at 2017-May-22 21:50 UTC. Time now 2017-May-26 20:43 UTC.
Position N 22°20' E 114°08'.

Length 213 m; beam 32.2 m; draft 11.5 m.

Type: Cargo ship. MMSI: 636017628.

Date/timePositionNaut miles runAvg speedWind from/ knotsBaromVisibWave heightAir tempDewpointWater temp
2017-May-22 21:50N 22°20' E 114°08'0 0.0
2017-May-22 21:20N 22°20' E 114°08'0 0.0
2017-May-22 20:56N 22°20' E 114°08'0 0.0
2017-May-22 18:56N 22°20' E 114°08'0 0.0
2017-May-22 18:14N 22°20' E 114°08'0 0.0
2017-May-22 17:56N 22°20' E 114°08'0 0.0
2017-May-22 17:29N 22°20' E 114°08'22412.7
2017-May-21 23:50N 23°32' E 117°58'1813.1
2017-May-21 22:28N 23°48' E 118°08'613.3
2017-May-21 21:59N 23°53' E 118°12'713.3
2017-May-21 21:29N 23°59' E 118°15'713.1
2017-May-21 20:59N 24°04' E 118°19'613.2
2017-May-21 20:30N 24°10' E 118°18'612.2
2017-May-21 20:01N 24°16' E 118°14'612.1
2017-May-21 19:31N 24°20' E 118°10'510.7
2017-May-21 19:00N 24°24' E 118°06'5 9.7
2017-May-21 18:31N 24°28' E 118°03'2 4.9
2017-May-21 18:00N 24°31' E 118°05'0 0.0
2017-May-21 17:30N 24°31' E 118°05'0 0.0
2017-May-21 16:57N 24°31' E 118°05'0 0.0
2017-May-21 16:30N 24°31' E 118°05'0 0.0
2017-May-21 16:00N 24°31' E 118°05'0 0.0
2017-May-21 15:24N 24°31' E 118°05'0 0.0
2017-May-21 15:00N 24°31' E 118°05'0 0.0
2017-May-21 14:00N 24°31' E 118°05'0 0.0
2017-May-21 13:30N 24°31' E 118°05'0 0.0
2017-May-21 12:57N 24°31' E 118°05'0 0.0
2017-May-21 12:30N 24°31' E 118°05'0 0.0
2017-May-21 12:00N 24°31' E 118°05'0 0.0
2017-May-21 11:29N 24°31' E 118°05'0 0.9
2017-May-21 11:00N 24°30' E 118°04'5 9.2
2017-May-21 10:30N 24°26' E 118°03'5 9.4
2017-May-21 10:00N 24°23' E 118°08'4 8.2
2017-May-21 09:31N 24°20' E 118°11'510.1
2017-May-21 09:00N 24°16' E 118°14'510.2
2017-May-21 08:30N 24°12' E 118°18'4 8.0
2017-May-21 07:58N 24°10' E 118°22'0 0.7
2017-May-21 07:25N 24°10' E 118°22'3 5.2
2017-May-21 06:53N 24°09' E 118°25'410.3
2017-May-21 06:30N 24°08' E 118°29'2 4.4
2017-May-21 05:56N 24°07' E 118°32'1 1.2
2017-May-21 05:29N 24°07' E 118°32'1 1.3
2017-May-21 04:37N 24°08' E 118°33'0 1.3
2017-May-21 04:26N 24°08' E 118°34'107 9.3
2017-May-20 16:55N 22°56' E 120°00'511.6
2017-May-20 16:30N 22°52' E 120°02'612.1
2017-May-20 16:00N 22°46' E 120°05'611.7
2017-May-20 15:31N 22°41' E 120°08'610.9
2017-May-20 15:00N 22°37' E 120°11'510.3
2017-May-20 14:30N 22°33' E 120°15'4 3.4
2017-May-20 13:15N 22°34' E 120°19'0 0.0
2017-May-20 12:57N 22°34' E 120°19'0 0.0
2017-May-20 12:30N 22°34' E 120°19'0 0.0
2017-May-20 11:57N 22°34' E 120°19'0 0.0
2017-May-20 11:18N 22°34' E 120°19'0 0.0
2017-May-20 11:00N 22°34' E 120°19'0 0.0
2017-May-20 10:24N 22°34' E 120°19'0 0.0
2017-May-20 09:54N 22°34' E 120°19'0 0.0
2017-May-20 08:00N 22°34' E 120°19'0 0.0
2017-May-20 07:30N 22°34' E 120°19'0 0.0
2017-May-20 06:57N 22°34' E 120°19'1 2.0
2017-May-20 06:30N 22°33' E 120°18'4 7.1
2017-May-20 06:00N 22°32' E 120°15'4 8.4
2017-May-20 05:30N 22°31' E 120°10'611.5
2017-May-20 05:00N 22°30' E 120°04'1 2.7
2017-May-20 04:30N 22°31' E 120°03'1 1.5
2017-May-20 04:00N 22°32' E 120°02'3 6.7
2017-May-20 03:30N 22°33' E 119°59'612.9
2017-May-20 03:00N 22°40' E 119°58'612.6
2017-May-20 02:30N 22°46' E 119°57'612.6
2017-May-20 02:00N 22°52' E 119°56'  
2017-May-15 16:38N 34°55' E 139°24'212.6
2017-May-15 16:27N 34°56' E 139°26'612.4
2017-May-15 15:59N 34°59' E 139°32'612.4
2017-May-15 15:30N 35°03' E 139°38'612.3
2017-May-15 15:00N 35°07' E 139°44'611.9
2017-May-15 14:30N 35°13' E 139°46'1312.7
2017-May-15 13:30N 35°25' E 139°42'2 3.6
2017-May-15 13:00N 35°26' E 139°41'0 0.2
2017-May-15 12:30N 35°26' E 139°41'0 0.1
2017-May-15 12:00N 35°26' E 139°41'0 0.1
2017-May-15 11:30N 35°26' E 139°41'0 0.1
2017-May-15 11:00N 35°26' E 139°41'0 0.0
2017-May-15 10:30N 35°26' E 139°41'0 0.1
2017-May-15 10:00N 35°26' E 139°41'0 0.0
2017-May-15 09:30N 35°26' E 139°41'0 0.1
2017-May-15 09:00N 35°26' E 139°41'0 0.0
2017-May-15 08:30N 35°26' E 139°41'0 0.1
2017-May-15 08:00N 35°26' E 139°41'0 0.0
2017-May-15 07:30N 35°26' E 139°41'0 0.0
2017-May-15 07:00N 35°26' E 139°41'0 0.0
2017-May-15 06:30N 35°26' E 139°41'0 0.0
2017-May-15 06:00N 35°26' E 139°41'0 0.1
2017-May-15 05:30N 35°26' E 139°41'0 0.1
2017-May-15 05:00N 35°26' E 139°41'0 0.0
2017-May-15 04:30N 35°26' E 139°41'0 0.2
2017-May-15 04:00N 35°26' E 139°41'2 3.5
2017-May-15 03:30N 35°26' E 139°43'1 1.0
2017-May-15 03:00N 35°26' E 139°43'0 0.1
2017-May-15 02:30N 35°26' E 139°43'0 0.1
2017-May-15 02:00N 35°26' E 139°43'0 0.0
2017-May-15 01:30N 35°26' E 139°43'0 0.0
2017-May-15 01:00N 35°26' E 139°43'0 0.0
2017-May-15 00:30N 35°26' E 139°43'0 0.0
2017-May-15 00:00N 35°26' E 139°43'0 0.0
2017-May-14 23:30N 35°26' E 139°43'0 0.1
2017-May-14 23:00N 35°26' E 139°43'0 0.0
2017-May-14 22:30N 35°26' E 139°43'0 0.0
2017-May-14 22:00N 35°26' E 139°43'0 0.0
2017-May-14 21:30N 35°26' E 139°43'0 0.1
2017-May-14 21:00N 35°26' E 139°43'0 0.1
2017-May-14 20:30N 35°26' E 139°43'0 0.1
2017-May-14 20:00N 35°26' E 139°43'0 0.0
2017-May-14 19:30N 35°26' E 139°43'0 0.0
2017-May-14 19:00N 35°26' E 139°43'0 0.0
2017-May-14 18:30N 35°26' E 139°43'0 0.0
2017-May-14 18:00N 35°26' E 139°43'0 0.0
2017-May-14 17:30N 35°26' E 139°43'0 0.0
2017-May-14 17:00N 35°26' E 139°43'0 0.0
2017-May-14 16:30N 35°26' E 139°43'0 0.1
2017-May-14 16:00N 35°26' E 139°43'0 0.0
2017-May-14 15:30N 35°26' E 139°43'0 0.0
2017-May-14 15:00N 35°26' E 139°43'0 0.3
2017-May-14 14:30N 35°26' E 139°44'1 2.5
2017-May-14 14:01N 35°26' E 139°45'713.2
2017-May-14 13:31N 35°31' E 139°51'612.3
2017-May-14 13:00N 35°36' E 139°47'0 0.8
2017-May-14 12:28N 35°36' E 139°47'0 0.0
2017-May-14 11:58N 35°36' E 139°47'0 0.0
2017-May-14 11:28N 35°36' E 139°47'0 0.0
2017-May-14 10:58N 35°36' E 139°47'0 0.0
2017-May-14 10:25N 35°36' E 139°47'0 0.0
2017-May-14 09:49N 35°36' E 139°47'0 0.0
2017-May-14 09:28N 35°36' E 139°47'0 0.0
2017-May-14 08:58N 35°36' E 139°47'0 0.0
2017-May-14 08:28N 35°36' E 139°47'0 0.0
2017-May-14 07:46N 35°36' E 139°47'0 0.0
2017-May-14 07:28N 35°36' E 139°47'0 0.0
2017-May-14 06:55N 35°36' E 139°47'0 0.0
2017-May-14 06:25N 35°36' E 139°47'0 0.0
2017-May-14 05:49N 35°36' E 139°47'0 0.0
2017-May-14 05:28N 35°36' E 139°47'0 0.0
2017-May-14 04:58N 35°36' E 139°47'0 0.0
2017-May-14 04:25N 35°36' E 139°47'0 0.0
2017-May-14 03:58N 35°36' E 139°47'0 0.0
2017-May-14 03:28N 35°36' E 139°47'0 0.0
2017-May-14 02:58N 35°36' E 139°47'0 0.0
2017-May-14 02:25N 35°36' E 139°47'0 0.0
2017-May-14 01:58N 35°36' E 139°47'0 0.0
2017-May-14 01:28N 35°36' E 139°47'0 0.0
2017-May-14 00:58N 35°36' E 139°47'0 0.0
2017-May-14 00:28N 35°36' E 139°47'0 0.0
2017-May-13 23:58N 35°36' E 139°47'0 0.0
2017-May-13 23:28N 35°36' E 139°47'1 3.0
2017-May-13 23:00N 35°35' E 139°48'611.1
2017-May-13 22:30N 35°31' E 139°52'714.2
2017-May-13 22:00N 35°25' E 139°47'612.9
2017-May-13 21:30N 35°19' E 139°44'612.3
2017-May-13 21:01N 35°13' E 139°47'510.3
2017-May-13 20:30N 35°08' E 139°46'5 9.7
2017-May-13 20:00N 35°04' E 139°43'510.7
2017-May-13 19:30N 35°01' E 139°37'611.1
2017-May-13 19:00N 34°58' E 139°32'611.4
2017-May-13 18:30N 34°54' E 139°26'911.4
2017-May-13 17:43N 34°50' E 139°17'  
Track history (hours):
 
Tides and Currents Weather Stations Pressure Air Temp Water Temp Dewpoint Dewpoint Depression Visibility Wind Speed Wind Dir Waves Ship Positions

Gulf Bridge

Last reported at 2017-May-22 21:50 UTC. Time now 2017-May-26 20:43 UTC.
Position N 22°20' E 114°08'.

Length 213 m; beam 32.2 m; draft 11.5 m.

Type: Cargo ship. MMSI: 636017628.

Date/timePositionNaut miles runAvg speedWind from/ knotsBaromVisibWave heightAir tempDewpointWater temp
2017-May-22 21:50N 22°20' E 114°08'0 0.0
2017-May-22 21:20N 22°20' E 114°08'0 0.0
2017-May-22 20:56N 22°20' E 114°08'0 0.0
2017-May-22 18:56N 22°20' E 114°08'0 0.0
2017-May-22 18:14N 22°20' E 114°08'0 0.0
2017-May-22 17:56N 22°20' E 114°08'0 0.0
2017-May-22 17:29N 22°20' E 114°08'22412.7
2017-May-21 23:50N 23°32' E 117°58'1813.1
2017-May-21 22:28N 23°48' E 118°08'613.3
2017-May-21 21:59N 23°53' E 118°12'713.3
2017-May-21 21:29N 23°59' E 118°15'713.1
2017-May-21 20:59N 24°04' E 118°19'613.2
2017-May-21 20:30N 24°10' E 118°18'612.2
2017-May-21 20:01N 24°16' E 118°14'612.1
2017-May-21 19:31N 24°20' E 118°10'510.7
2017-May-21 19:00N 24°24' E 118°06'5 9.7
2017-May-21 18:31N 24°28' E 118°03'2 4.9
2017-May-21 18:00N 24°31' E 118°05'0 0.0
2017-May-21 17:30N 24°31' E 118°05'0 0.0
2017-May-21 16:57N 24°31' E 118°05'0 0.0
2017-May-21 16:30N 24°31' E 118°05'0 0.0
2017-May-21 16:00N 24°31' E 118°05'0 0.0
2017-May-21 15:24N 24°31' E 118°05'0 0.0
2017-May-21 15:00N 24°31' E 118°05'0 0.0
2017-May-21 14:00N 24°31' E 118°05'0 0.0
2017-May-21 13:30N 24°31' E 118°05'0 0.0
2017-May-21 12:57N 24°31' E 118°05'0 0.0
2017-May-21 12:30N 24°31' E 118°05'0 0.0
2017-May-21 12:00N 24°31' E 118°05'0 0.0
2017-May-21 11:29N 24°31' E 118°05'0 0.9
2017-May-21 11:00N 24°30' E 118°04'5 9.2
2017-May-21 10:30N 24°26' E 118°03'5 9.4
2017-May-21 10:00N 24°23' E 118°08'4 8.2
2017-May-21 09:31N 24°20' E 118°11'510.1
2017-May-21 09:00N 24°16' E 118°14'510.2
2017-May-21 08:30N 24°12' E 118°18'4 8.0
2017-May-21 07:58N 24°10' E 118°22'0 0.7
2017-May-21 07:25N 24°10' E 118°22'3 5.2
2017-May-21 06:53N 24°09' E 118°25'410.3
2017-May-21 06:30N 24°08' E 118°29'2 4.4
2017-May-21 05:56N 24°07' E 118°32'1 1.2
2017-May-21 05:29N 24°07' E 118°32'1 1.3
2017-May-21 04:37N 24°08' E 118°33'0 1.3
2017-May-21 04:26N 24°08' E 118°34'107 9.3
2017-May-20 16:55N 22°56' E 120°00'511.6
2017-May-20 16:30N 22°52' E 120°02'612.1
2017-May-20 16:00N 22°46' E 120°05'611.7
2017-May-20 15:31N 22°41' E 120°08'610.9
2017-May-20 15:00N 22°37' E 120°11'510.3
2017-May-20 14:30N 22°33' E 120°15'4 3.4
2017-May-20 13:15N 22°34' E 120°19'0 0.0
2017-May-20 12:57N 22°34' E 120°19'0 0.0
2017-May-20 12:30N 22°34' E 120°19'0 0.0
2017-May-20 11:57N 22°34' E 120°19'0 0.0
2017-May-20 11:18N 22°34' E 120°19'0 0.0
2017-May-20 11:00N 22°34' E 120°19'0 0.0
2017-May-20 10:24N 22°34' E 120°19'0 0.0
2017-May-20 09:54N 22°34' E 120°19'0 0.0
2017-May-20 08:00N 22°34' E 120°19'0 0.0
2017-May-20 07:30N 22°34' E 120°19'0 0.0
2017-May-20 06:57N 22°34' E 120°19'1 2.0
2017-May-20 06:30N 22°33' E 120°18'4 7.1
2017-May-20 06:00N 22°32' E 120°15'4 8.4
2017-May-20 05:30N 22°31' E 120°10'611.5
2017-May-20 05:00N 22°30' E 120°04'1 2.7
2017-May-20 04:30N 22°31' E 120°03'1 1.5
2017-May-20 04:00N 22°32' E 120°02'3 6.7
2017-May-20 03:30N 22°33' E 119°59'612.9
2017-May-20 03:00N 22°40' E 119°58'612.6
2017-May-20 02:30N 22°46' E 119°57'612.6
2017-May-20 02:00N 22°52' E 119°56'  
2017-May-15 16:38N 34°55' E 139°24'212.6
2017-May-15 16:27N 34°56' E 139°26'612.4
2017-May-15 15:59N 34°59' E 139°32'612.4
2017-May-15 15:30N 35°03' E 139°38'612.3
2017-May-15 15:00N 35°07' E 139°44'611.9
2017-May-15 14:30N 35°13' E 139°46'1312.7
2017-May-15 13:30N 35°25' E 139°42'2 3.6
2017-May-15 13:00N 35°26' E 139°41'0 0.2
2017-May-15 12:30N 35°26' E 139°41'0 0.1
2017-May-15 12:00N 35°26' E 139°41'0 0.1
2017-May-15 11:30N 35°26' E 139°41'0 0.1
2017-May-15 11:00N 35°26' E 139°41'0 0.0
2017-May-15 10:30N 35°26' E 139°41'0 0.1
2017-May-15 10:00N 35°26' E 139°41'0 0.0
2017-May-15 09:30N 35°26' E 139°41'0 0.1
2017-May-15 09:00N 35°26' E 139°41'0 0.0
2017-May-15 08:30N 35°26' E 139°41'0 0.1
2017-May-15 08:00N 35°26' E 139°41'0 0.0
2017-May-15 07:30N 35°26' E 139°41'0 0.0
2017-May-15 07:00N 35°26' E 139°41'0 0.0
2017-May-15 06:30N 35°26' E 139°41'0 0.0
2017-May-15 06:00N 35°26' E 139°41'0 0.1
2017-May-15 05:30N 35°26' E 139°41'0 0.1
2017-May-15 05:00N 35°26' E 139°41'0 0.0
2017-May-15 04:30N 35°26' E 139°41'0 0.2
2017-May-15 04:00N 35°26' E 139°41'2 3.5
2017-May-15 03:30N 35°26' E 139°43'1 1.0
2017-May-15 03:00N 35°26' E 139°43'0 0.1
2017-May-15 02:30N 35°26' E 139°43'0 0.1
2017-May-15 02:00N 35°26' E 139°43'0 0.0
2017-May-15 01:30N 35°26' E 139°43'0 0.0
2017-May-15 01:00N 35°26' E 139°43'0 0.0
2017-May-15 00:30N 35°26' E 139°43'0 0.0
2017-May-15 00:00N 35°26' E 139°43'0 0.0
2017-May-14 23:30N 35°26' E 139°43'0 0.1
2017-May-14 23:00N 35°26' E 139°43'0 0.0
2017-May-14 22:30N 35°26' E 139°43'0 0.0
2017-May-14 22:00N 35°26' E 139°43'0 0.0
2017-May-14 21:30N 35°26' E 139°43'0 0.1
2017-May-14 21:00N 35°26' E 139°43'0 0.1
2017-May-14 20:30N 35°26' E 139°43'0 0.1
2017-May-14 20:00N 35°26' E 139°43'0 0.0
2017-May-14 19:30N 35°26' E 139°43'0 0.0
2017-May-14 19:00N 35°26' E 139°43'0 0.0
2017-May-14 18:30N 35°26' E 139°43'0 0.0
2017-May-14 18:00N 35°26' E 139°43'0 0.0
2017-May-14 17:30N 35°26' E 139°43'0 0.0
2017-May-14 17:00N 35°26' E 139°43'0 0.0
2017-May-14 16:30N 35°26' E 139°43'0 0.1
2017-May-14 16:00N 35°26' E 139°43'0 0.0
2017-May-14 15:30N 35°26' E 139°43'0 0.0
2017-May-14 15:00N 35°26' E 139°43'0 0.3
2017-May-14 14:30N 35°26' E 139°44'1 2.5
2017-May-14 14:01N 35°26' E 139°45'713.2
2017-May-14 13:31N 35°31' E 139°51'612.3
2017-May-14 13:00N 35°36' E 139°47'0 0.8
2017-May-14 12:28N 35°36' E 139°47'0 0.0
2017-May-14 11:58N 35°36' E 139°47'0 0.0
2017-May-14 11:28N 35°36' E 139°47'0 0.0
2017-May-14 10:58N 35°36' E 139°47'0 0.0
2017-May-14 10:25N 35°36' E 139°47'0 0.0
2017-May-14 09:49N 35°36' E 139°47'0 0.0
2017-May-14 09:28N 35°36' E 139°47'0 0.0
2017-May-14 08:58N 35°36' E 139°47'0 0.0
2017-May-14 08:28N 35°36' E 139°47'0 0.0
2017-May-14 07:46N 35°36' E 139°47'0 0.0
2017-May-14 07:28N 35°36' E 139°47'0 0.0
2017-May-14 06:55N 35°36' E 139°47'0 0.0
2017-May-14 06:25N 35°36' E 139°47'0 0.0
2017-May-14 05:49N 35°36' E 139°47'0 0.0
2017-May-14 05:28N 35°36' E 139°47'0 0.0
2017-May-14 04:58N 35°36' E 139°47'0 0.0
2017-May-14 04:25N 35°36' E 139°47'0 0.0
2017-May-14 03:58N 35°36' E 139°47'0 0.0
2017-May-14 03:28N 35°36' E 139°47'0 0.0
2017-May-14 02:58N 35°36' E 139°47'0 0.0
2017-May-14 02:25N 35°36' E 139°47'0 0.0
2017-May-14 01:58N 35°36' E 139°47'0 0.0
2017-May-14 01:28N 35°36' E 139°47'0 0.0
2017-May-14 00:58N 35°36' E 139°47'0 0.0
2017-May-14 00:28N 35°36' E 139°47'0 0.0
2017-May-13 23:58N 35°36' E 139°47'0 0.0
2017-May-13 23:28N 35°36' E 139°47'1 3.0
2017-May-13 23:00N 35°35' E 139°48'611.1
2017-May-13 22:30N 35°31' E 139°52'714.2
2017-May-13 22:00N 35°25' E 139°47'612.9
2017-May-13 21:30N 35°19' E 139°44'612.3
2017-May-13 21:01N 35°13' E 139°47'510.3
2017-May-13 20:30N 35°08' E 139°46'5 9.7
2017-May-13 20:00N 35°04' E 139°43'510.7
2017-May-13 19:30N 35°01' E 139°37'611.1
2017-May-13 19:00N 34°58' E 139°32'611.4
2017-May-13 18:30N 34°54' E 139°26'911.4
2017-May-13 17:43N 34°50' E 139°17'  

Dump ship's entire track history